Time;durP1;ratioP1;P1;durP2;ratioP2;P2;SDS_P1;SDS_P2;PMS_P1;PMS_P2;Temp;Humidity;BMP_temperature;BMP_pressure;BME280_temperature;BME280_humidity;BME280_pressure;Samples;Min_cycle;Max_cycle;Signal;HPM_P1;HPM_P2
2021/10/22 00:01:18;;;;;;;5.20;5.00;;;13.00;69.70;;;;;;4976898;28;20043;-84
2021/10/22 00:03:45;;;;;;;5.70;5.40;;;13.00;69.80;;;;;;4978373;28;20049;-83
2021/10/22 00:06:11;;;;;;;5.22;5.03;;;13.00;69.80;;;;;;4996575;28;20030;-83
2021/10/22 00:08:37;;;;;;;5.90;5.60;;;13.00;69.80;;;;;;4997501;28;20045;-84
2021/10/22 00:11:03;;;;;;;5.20;5.00;;;13.00;69.80;;;;;;5004475;28;20034;-83
2021/10/22 00:13:29;;;;;;;5.15;4.95;;;13.10;69.80;;;;;;4992249;28;20050;-83
2021/10/22 00:15:55;;;;;;;5.35;5.15;;;13.10;69.80;;;;;;4993712;28;20038;-83
2021/10/22 00:18:21;;;;;;;5.38;5.07;;;13.10;69.80;;;;;;4997539;28;20044;-83
2021/10/22 00:20:48;;;;;;;5.13;4.93;;;13.10;69.70;;;;;;5001381;28;20038;-83
2021/10/22 00:23:14;;;;;;;5.40;5.20;;;13.10;69.70;;;;;;4985197;28;20030;-83
2021/10/22 00:25:40;;;;;;;5.47;5.28;;;13.00;69.70;;;;;;4990372;28;20507;-84
2021/10/22 00:28:06;;;;;;;5.18;4.97;;;13.10;69.80;;;;;;5029057;28;20034;-83
2021/10/22 00:30:32;;;;;;;5.32;5.13;;;13.10;69.80;;;;;;4994569;28;20506;-83
2021/10/22 00:32:58;;;;;;;5.40;5.20;;;13.10;69.70;;;;;;4977646;28;20042;-83
2021/10/22 00:35:24;;;;;;;5.50;5.30;;;13.00;70.40;;;;;;4995177;28;20482;-83
2021/10/22 00:37:50;;;;;;;5.20;5.00;;;13.00;69.60;;;;;;4989550;28;20039;-83
2021/10/22 00:40:16;;;;;;;5.10;4.90;;;13.00;69.60;;;;;;4994050;28;20391;-83
2021/10/22 00:42:42;;;;;;;5.50;5.20;;;13.00;69.60;;;;;;4993095;28;20086;-83
2021/10/22 00:45:09;;;;;;;5.30;5.10;;;12.90;69.60;;;;;;4997333;28;20046;-83
2021/10/22 00:47:35;;;;;;;5.28;5.07;;;12.90;69.60;;;;;;4998773;28;20408;-82
2021/10/22 00:50:02;;;;;;;7.15;5.03;;;12.90;69.60;;;;;;5006576;28;20038;-83
2021/10/22 00:52:28;;;;;;;5.10;4.90;;;12.90;69.70;;;;;;4993186;28;20376;-83
2021/10/22 00:54:57;;;;;;;6.10;5.78;;;12.90;69.70;;;;;;4977471;28;20514;-83
2021/10/22 00:57:23;;;;;;;5.28;5.07;;;12.90;69.70;;;;;;4996926;28;20046;-83
2021/10/22 00:59:50;;;;;;;5.88;5.47;;;12.90;69.60;;;;;;4999885;28;20488;-83
2021/10/22 01:02:16;;;;;;;5.45;5.15;;;12.80;69.50;;;;;;4992571;28;20045;-83
2021/10/22 01:04:42;;;;;;;5.82;5.53;;;12.80;69.60;;;;;;4975700;28;20046;-83
2021/10/22 01:07:09;;;;;;;5.30;5.10;;;12.80;69.60;;;;;;5028244;28;20019;-84
2021/10/22 01:09:35;;;;;;;5.28;5.07;;;12.80;69.60;;;;;;4995274;28;20053;-83
2021/10/22 01:12:01;;;;;;;5.03;4.82;;;12.70;69.50;;;;;;4995244;28;20030;-83
2021/10/22 01:14:28;;;;;;;5.28;5.07;;;12.70;69.60;;;;;;4987187;28;20039;-83
2021/10/22 01:16:54;;;;;;;5.30;5.10;;;12.70;69.90;;;;;;5003062;28;20034;-83
2021/10/22 01:19:20;;;;;;;5.20;5.00;;;12.70;69.70;;;;;;4993491;28;20022;-83
2021/10/22 01:21:47;;;;;;;5.35;5.15;;;12.70;69.70;;;;;;4994726;28;20423;-83
2021/10/22 01:24:14;;;;;;;5.10;4.90;;;12.60;69.60;;;;;;4989580;28;20026;-83
2021/10/22 01:26:40;;;;;;;5.20;5.00;;;12.70;69.70;;;;;;4989106;28;20502;-83
2021/10/22 01:29:06;;;;;;;5.57;5.28;;;12.70;69.70;;;;;;4990672;28;20037;-83
2021/10/22 01:31:33;;;;;;;5.00;4.80;;;12.60;69.60;;;;;;4990264;28;20053;-83
2021/10/22 01:33:59;;;;;;;6.03;5.72;;;12.60;69.50;;;;;;4994251;28;20460;-83
2021/10/22 01:36:26;;;;;;;5.50;5.30;;;12.60;69.60;;;;;;4997062;28;20050;-83
2021/10/22 01:38:53;;;;;;;5.40;5.15;;;12.60;69.60;;;;;;5000928;28;20058;-83
2021/10/22 01:41:20;;;;;;;5.40;5.20;;;12.60;69.60;;;;;;4985004;28;20480;-83
2021/10/22 01:43:47;;;;;;;5.35;5.15;;;12.60;69.60;;;;;;4990217;28;20027;-83
2021/10/22 01:46:13;;;;;;;5.20;5.00;;;12.60;69.70;;;;;;4994217;28;20034;-82
2021/10/22 01:48:40;;;;;;;6.05;5.75;;;12.60;69.60;;;;;;4992391;28;20479;-83
2021/10/22 01:51:06;;;;;;;5.20;5.00;;;12.50;69.50;;;;;;4994592;28;20391;-82
2021/10/22 01:53:32;;;;;;;4.90;4.70;;;12.50;69.60;;;;;;5002459;28;20041;-83
2021/10/22 01:55:58;;;;;;;5.15;4.95;;;12.50;69.60;;;;;;4991886;28;20039;-82
2021/10/22 01:58:24;;;;;;;5.30;5.10;;;12.50;69.60;;;;;;4992052;28;20391;-83
2021/10/22 02:00:50;;;;;;;5.68;5.38;;;12.50;69.60;;;;;;4993320;28;20046;-83
2021/10/22 02:03:24;;;;;;;5.28;5.07;;;12.60;69.60;;;;;;4980238;28;20395;-83
2021/10/22 02:05:50;;;;;;;5.32;5.13;;;12.60;69.50;;;;;;4981046;28;20046;-83
2021/10/22 02:08:16;;;;;;;5.50;5.20;;;12.60;69.50;;;;;;4991313;28;20026;-83
2021/10/22 02:10:42;;;;;;;5.70;5.20;;;12.60;69.50;;;;;;4980152;28;20045;-83
2021/10/22 02:13:08;;;;;;;5.10;4.90;;;12.50;69.40;;;;;;5008479;28;20041;-83
2021/10/22 02:15:34;;;;;;;5.28;5.00;;;12.50;69.50;;;;;;4992519;28;20411;-83
2021/10/22 02:18:00;;;;;;;5.20;5.00;;;12.50;69.60;;;;;;4993084;28;20030;-83
2021/10/22 02:20:27;;;;;;;5.10;4.90;;;12.50;69.60;;;;;;5024883;28;20392;-82
2021/10/22 02:22:53;;;;;;;5.10;4.90;;;12.50;69.60;;;;;;5024448;28;20034;-83
2021/10/22 02:25:21;;;;;;;5.10;4.90;;;12.50;69.60;;;;;;5023485;28;20041;-83
2021/10/22 02:27:47;;;;;;;5.10;4.90;;;12.50;69.60;;;;;;4992668;28;20037;-83
2021/10/22 02:30:13;;;;;;;5.53;5.13;;;12.50;69.60;;;;;;5024138;28;20456;-83
2021/10/22 02:32:39;;;;;;;5.15;4.95;;;12.50;69.60;;;;;;4991575;28;20035;-83
2021/10/22 02:35:06;;;;;;;5.43;5.13;;;12.40;69.60;;;;;;5008177;28;20038;-82
2021/10/22 02:37:32;;;;;;;5.45;5.18;;;12.40;69.60;;;;;;4992527;28;20494;-83
2021/10/22 02:39:58;;;;;;;4.90;4.70;;;12.40;69.70;;;;;;5030526;28;20034;-82
2021/10/22 02:42:24;;;;;;;5.60;5.30;;;12.40;69.70;;;;;;4980052;28;20038;-83
2021/10/22 02:44:50;;;;;;;5.10;4.90;;;12.40;69.70;;;;;;4994668;28;20475;-83
2021/10/22 02:47:16;;;;;;;4.93;4.72;;;12.30;69.70;;;;;;5007884;28;20034;-83
2021/10/22 02:49:43;;;;;;;5.30;4.90;;;12.30;69.70;;;;;;4990937;28;20472;-83
2021/10/22 02:52:09;;;;;;;5.03;4.82;;;12.30;69.80;;;;;;4997989;28;20026;-83
2021/10/22 02:54:35;;;;;;;4.90;4.70;;;12.30;69.80;;;;;;4995297;28;20511;-83
2021/10/22 02:57:01;;;;;;;4.55;4.35;;;12.30;69.80;;;;;;4997021;28;20027;-83
2021/10/22 02:59:27;;;;;;;4.70;4.50;;;12.30;69.80;;;;;;4997408;28;20041;-83
2021/10/22 03:01:53;;;;;;;5.10;4.90;;;12.30;69.80;;;;;;4990694;28;20027;-83
2021/10/22 03:04:19;;;;;;;4.82;4.63;;;12.30;69.80;;;;;;4995595;28;20051;-83
2021/10/22 03:06:45;;;;;;;4.80;4.60;;;12.30;69.80;;;;;;4997112;28;20041;-82
2021/10/22 03:09:11;;;;;;;5.68;5.38;;;12.30;69.80;;;;;;4996806;28;20038;-83
2021/10/22 03:11:37;;;;;;;4.80;4.60;;;12.20;69.70;;;;;;4992227;28;20426;-83
2021/10/22 03:14:04;;;;;;;5.45;5.15;;;12.20;69.80;;;;;;5006605;28;20042;-83
2021/10/22 03:16:30;;;;;;;4.50;4.30;;;12.20;69.90;;;;;;4993231;28;20051;-82
2021/10/22 03:18:56;;;;;;;4.80;4.60;;;12.20;69.90;;;;;;4998411;28;20026;-82
2021/10/22 03:21:23;;;;;;;5.45;5.15;;;12.20;69.90;;;;;;4995580;28;20446;-82
2021/10/22 03:23:54;;;;;;;4.95;4.55;;;12.20;69.90;;;;;;4991958;28;20038;-81
2021/10/22 03:26:21;;;;;;;4.70;4.50;;;12.20;69.90;;;;;;4993118;28;20467;-81
2021/10/22 03:28:47;;;;;;;4.95;4.75;;;12.10;69.80;;;;;;5006060;28;20042;-82
2021/10/22 03:31:13;;;;;;;5.40;5.03;;;12.10;69.80;;;;;;4995060;28;20038;-82
2021/10/22 03:33:39;;;;;;;4.78;4.57;;;12.10;69.90;;;;;;4995231;28;20045;-82
2021/10/22 03:36:05;;;;;;;4.80;4.60;;;12.10;69.90;;;;;;4999991;28;20069;-81
2021/10/22 03:38:31;;;;;;;4.80;4.60;;;12.10;69.90;;;;;;5005187;28;20483;-82
2021/10/22 03:40:57;;;;;;;7.35;4.80;;;12.10;69.90;;;;;;4991231;28;20038;-82
2021/10/22 03:43:24;;;;;;;5.40;5.00;;;12.10;69.90;;;;;;4977738;28;20408;-82
2021/10/22 03:45:50;;;;;;;4.70;4.50;;;12.10;69.90;;;;;;4996960;28;20041;-82
2021/10/22 03:48:16;;;;;;;4.60;4.40;;;12.10;70.00;;;;;;4993434;28;20506;-82
2021/10/22 03:50:42;;;;;;;4.70;4.50;;;12.10;69.90;;;;;;4992084;28;20030;-82
2021/10/22 03:53:09;;;;;;;4.75;4.55;;;12.10;69.90;;;;;;5004036;28;20363;-82
2021/10/22 03:55:35;;;;;;;5.00;4.80;;;12.10;70.00;;;;;;4990993;28;20042;-82
2021/10/22 03:58:01;;;;;;;4.70;4.50;;;12.10;70.00;;;;;;5012870;28;20042;-82
2021/10/22 04:00:27;;;;;;;4.60;4.40;;;12.00;69.90;;;;;;4995603;28;20407;-82
2021/10/22 04:02:53;;;;;;;4.72;4.53;;;12.00;70.00;;;;;;4993992;28;20045;-82
2021/10/22 04:05:19;;;;;;;4.53;4.32;;;12.00;70.00;;;;;;4996960;28;20031;-82
2021/10/22 04:07:45;;;;;;;4.53;4.32;;;12.00;70.00;;;;;;5006908;28;20618;-82
2021/10/22 04:10:11;;;;;;;4.70;4.50;;;12.00;70.10;;;;;;4997289;28;20034;-82
2021/10/22 04:12:38;;;;;;;4.47;4.28;;;12.00;70.10;;;;;;4999588;28;20413;-82
2021/10/22 04:15:04;;;;;;;5.22;4.78;;;12.00;70.10;;;;;;4998379;28;20054;-82
2021/10/22 04:17:30;;;;;;;4.43;4.22;;;12.00;70.10;;;;;;4995532;28;20029;-82
2021/10/22 04:19:57;;;;;;;4.68;4.47;;;12.00;70.10;;;;;;4993491;28;20050;-82
2021/10/22 04:22:23;;;;;;;4.40;4.20;;;11.90;70.10;;;;;;4993333;28;20041;-82
2021/10/22 04:24:49;;;;;;;4.32;4.13;;;11.90;70.10;;;;;;4996108;28;20042;-82
2021/10/22 04:27:15;;;;;;;4.50;4.30;;;11.90;70.10;;;;;;4998718;28;20455;-82
2021/10/22 04:29:42;;;;;;;4.22;4.03;;;11.90;70.20;;;;;;4999234;28;20026;-82
2021/10/22 04:32:08;;;;;;;4.40;4.20;;;11.90;70.20;;;;;;5004275;28;20034;-82
2021/10/22 04:34:34;;;;;;;4.50;4.30;;;11.90;70.30;;;;;;4991821;28;20062;-82
2021/10/22 04:42:29;;;;;;;4.50;4.30;;;11.80;70.30;;;;;;4998718;28;20022;-82
2021/10/22 04:44:55;;;;;;;4.30;4.10;;;11.80;70.30;;;;;;4999218;28;20398;-82
2021/10/22 04:47:21;;;;;;;4.20;4.00;;;11.80;70.30;;;;;;5003992;28;20040;-82
2021/10/22 04:49:47;;;;;;;4.00;3.80;;;11.80;70.30;;;;;;4990399;28;20031;-82
2021/10/22 04:52:13;;;;;;;4.40;4.20;;;11.90;70.40;;;;;;4996144;28;20045;-82
2021/10/22 04:54:39;;;;;;;4.40;4.20;;;11.80;70.30;;;;;;5024741;28;20405;-82
2021/10/22 04:57:05;;;;;;;4.40;4.20;;;11.80;70.40;;;;;;4995674;28;20030;-82
2021/10/22 04:59:32;;;;;;;4.50;4.30;;;11.80;70.50;;;;;;4989005;28;20522;-82
2021/10/22 05:01:58;;;;;;;4.40;4.20;;;11.80;70.50;;;;;;5004712;28;20035;-82
2021/10/22 05:04:24;;;;;;;4.30;4.10;;;11.70;70.60;;;;;;4992482;28;20506;-79
2021/10/22 05:06:50;;;;;;;4.32;4.13;;;11.70;70.70;;;;;;4996271;28;20030;-82
2021/10/22 05:09:16;;;;;;;4.28;4.07;;;11.70;70.70;;;;;;4995958;28;20029;-82
2021/10/22 05:11:42;;;;;;;4.25;4.05;;;11.70;70.70;;;;;;5001217;28;20483;-82
2021/10/22 05:14:09;;;;;;;4.30;4.10;;;11.70;70.80;;;;;;4991010;28;20037;-82
2021/10/22 05:16:35;;;;;;;4.20;4.00;;;11.70;70.80;;;;;;4991037;28;20054;-84
2021/10/22 05:19:01;;;;;;;4.10;3.90;;;11.60;70.80;;;;;;4996119;28;20030;-83
2021/10/22 05:21:27;;;;;;;4.20;4.00;;;11.60;70.90;;;;;;4998377;28;20034;-83
2021/10/22 05:23:53;;;;;;;4.45;4.13;;;11.50;70.90;;;;;;5003645;28;20042;-84
2021/10/22 05:26:19;;;;;;;4.00;3.80;;;11.50;71.00;;;;;;4982938;28;20368;-84
2021/10/22 05:28:45;;;;;;;4.80;4.50;;;11.50;71.10;;;;;;4990432;28;20026;-84
2021/10/22 05:31:12;;;;;;;4.40;4.10;;;11.40;71.00;;;;;;4995615;28;20030;-84
2021/10/22 05:33:38;;;;;;;4.07;3.88;;;11.40;71.10;;;;;;5001423;28;20026;-84
2021/10/22 05:36:04;;;;;;;4.00;3.80;;;11.40;71.10;;;;;;4981247;28;20038;-83
2021/10/22 05:38:30;;;;;;;3.90;3.70;;;11.30;71.20;;;;;;4987692;28;20027;-84
2021/10/22 05:40:56;;;;;;;4.28;4.07;;;11.40;71.30;;;;;;5003194;28;20042;-83
2021/10/22 05:43:23;;;;;;;4.28;4.07;;;11.30;71.30;;;;;;4997519;28;20022;-83
2021/10/22 05:45:49;;;;;;;4.97;4.75;;;11.30;71.30;;;;;;4997846;28;20038;-83
2021/10/22 05:48:15;;;;;;;4.65;4.45;;;11.20;71.30;;;;;;4998130;28;20025;-82
2021/10/22 05:50:41;;;;;;;5.93;5.60;;;11.20;71.30;;;;;;5004658;28;20391;-83
2021/10/22 05:53:08;;;;;;;5.20;4.80;;;11.20;71.40;;;;;;4994044;28;20045;-83
2021/10/22 05:55:34;;;;;;;5.25;4.95;;;11.20;71.40;;;;;;4994888;28;20086;-84
2021/10/22 05:58:00;;;;;;;5.30;5.00;;;11.20;71.50;;;;;;4999841;28;20034;-84
2021/10/22 06:00:26;;;;;;;5.18;4.88;;;11.20;71.60;;;;;;4996973;28;20038;-83
2021/10/22 06:02:53;;;;;;;6.15;5.75;;;11.10;71.60;;;;;;4995286;28;20397;-83
2021/10/22 06:05:19;;;;;;;5.43;4.88;;;11.10;71.60;;;;;;5007493;28;20030;-83
2021/10/22 06:07:46;;;;;;;4.75;4.55;;;11.10;71.60;;;;;;4993089;28;20041;-83
2021/10/22 06:10:12;;;;;;;5.35;5.05;;;11.00;71.60;;;;;;4982040;28;20053;-83
2021/10/22 06:12:38;;;;;;;5.25;5.05;;;11.00;71.60;;;;;;4996548;28;20034;-84
2021/10/22 06:15:04;;;;;;;4.80;4.60;;;11.00;71.60;;;;;;4994412;28;20045;-85
2021/10/22 06:17:30;;;;;;;5.40;5.10;;;11.00;71.60;;;;;;4990206;28;20046;-85
2021/10/22 06:20:00;;;;;;;5.53;5.15;;;10.90;71.60;;;;;;5007438;28;20030;-85
2021/10/22 06:22:39;;;;;;;4.90;4.70;;;10.90;71.60;;;;;;4978394;28;20046;-83
2021/10/22 06:25:06;;;;;;;4.55;4.35;;;10.90;71.70;;;;;;4999094;28;20022;-84
2021/10/22 06:27:32;;;;;;;4.85;4.65;;;10.80;71.70;;;;;;5000004;28;20433;-84
2021/10/22 06:29:59;;;;;;;5.80;5.25;;;10.80;71.80;;;;;;5010666;28;20035;-84
2021/10/22 06:32:25;;;;;;;5.32;5.03;;;10.80;71.90;;;;;;4996566;28;20041;-84
2021/10/22 06:34:51;;;;;;;4.68;4.47;;;10.80;71.90;;;;;;4993202;28;20115;-85
2021/10/22 06:37:17;;;;;;;5.30;4.95;;;10.70;71.90;;;;;;4996350;28;20038;-84
2021/10/22 06:39:44;;;;;;;5.53;5.13;;;10.70;72.00;;;;;;5013085;28;20392;-84
2021/10/22 06:42:10;;;;;;;5.85;5.32;;;10.70;72.10;;;;;;4997229;28;20046;-85
2021/10/22 06:44:36;;;;;;;4.50;4.30;;;10.70;72.10;;;;;;4995937;28;20036;-89
2021/10/22 06:47:02;;;;;;;4.70;4.50;;;10.70;72.10;;;;;;4979477;28;20035;-92
2021/10/22 06:49:28;;;;;;;4.63;4.43;;;10.70;72.10;;;;;;4993884;28;20039;-88
2021/10/22 06:51:54;;;;;;;4.25;4.05;;;10.70;72.00;;;;;;4995559;28;20045;-86
2021/10/22 06:54:21;;;;;;;4.82;4.50;;;10.70;72.00;;;;;;4988912;28;20502;-87
2021/10/22 06:56:47;;;;;;;10.50;4.63;;;10.70;72.10;;;;;;5021632;28;20038;-89
2021/10/22 06:59:13;;;;;;;4.32;4.13;;;10.70;72.10;;;;;;4989745;28;20032;-91
2021/10/22 07:01:39;;;;;;;4.60;4.40;;;10.70;72.10;;;;;;4976284;28;20034;-91
2021/10/22 07:04:08;;;;;;;4.40;4.20;;;10.70;72.10;;;;;;5011906;28;20089;-87
2021/10/22 07:09:18;;;;;;;4.35;4.15;;;10.60;72.10;;;;;;5004478;28;20030;-86
2021/10/22 07:11:44;;;;;;;5.07;4.78;;;10.70;72.10;;;;;;5005026;28;20031;-89
2021/10/22 07:14:10;;;;;;;4.85;4.55;;;10.70;72.10;;;;;;5021792;28;20031;-88
2021/10/22 07:16:39;;;;;;;4.75;4.45;;;10.70;72.00;;;;;;4995787;28;20042;-88
2021/10/22 07:19:05;;;;;;;5.18;4.90;;;10.70;72.00;;;;;;4989327;28;20041;-88
2021/10/22 07:21:32;;;;;;;4.53;4.32;;;10.70;72.00;;;;;;4995147;28;20487;-87
2021/10/22 07:24:01;;;;;;;4.47;4.28;;;10.70;72.00;;;;;;4988322;28;20042;-90
2021/10/22 07:26:27;;;;;;;4.35;4.15;;;10.70;71.90;;;;;;5005379;28;20049;-92
2021/10/22 07:28:53;;;;;;;5.53;4.70;;;10.80;71.90;;;;;;5007122;28;20031;-88
2021/10/22 07:31:20;;;;;;;4.60;4.38;;;11.10;71.70;;;;;;4969980;28;20499;-88
2021/10/22 07:33:47;;;;;;;4.90;4.70;;;11.60;70.40;;;;;;4984945;28;20390;-88
2021/10/22 07:36:14;;;;;;;4.90;4.70;;;12.10;68.80;;;;;;5000774;28;20047;-90
2021/10/22 07:38:42;;;;;;;4.68;4.47;;;12.60;67.60;;;;;;4970178;28;20041;-88
2021/10/22 07:41:08;;;;;;;4.60;4.40;;;13.00;66.50;;;;;;4992822;28;20036;-88
2021/10/22 07:43:36;;;;;;;11.13;5.15;;;13.50;65.60;;;;;;4998853;28;20042;-87
2021/10/22 07:46:02;;;;;;;6.35;5.95;;;13.90;64.90;;;;;;4969763;28;20031;-88
2021/10/22 07:48:28;;;;;;;5.72;5.43;;;14.20;64.20;;;;;;5022738;28;20038;-86
2021/10/22 07:50:54;;;;;;;5.65;5.35;;;14.60;63.60;;;;;;4988621;28;20034;-87
2021/10/22 07:53:20;;;;;;;5.78;5.47;;;15.00;63.00;;;;;;5003793;28;20034;-86
2021/10/22 07:55:46;;;;;;;13.50;6.00;;;15.20;62.50;;;;;;5007148;28;20046;-85
2021/10/22 07:58:13;;;;;;;6.70;6.30;;;15.40;62.40;;;;;;5020832;28;20034;-86
2021/10/22 08:00:39;;;;;;;6.07;5.78;;;15.70;62.10;;;;;;4987597;28;20053;-86
2021/10/22 08:03:05;;;;;;;6.32;6.03;;;15.90;61.80;;;;;;5017577;28;20038;-87
2021/10/22 08:05:31;;;;;;;6.38;6.07;;;16.00;61.70;;;;;;4981381;28;20420;-86
2021/10/22 08:07:57;;;;;;;6.65;6.35;;;15.90;62.40;;;;;;5021961;28;20034;-86
2021/10/22 08:10:23;;;;;;;5.80;5.50;;;15.90;61.80;;;;;;4989807;28;20468;-87
2021/10/22 08:12:50;;;;;;;6.07;5.78;;;16.00;62.20;;;;;;4993802;28;20043;-86
2021/10/22 08:15:16;;;;;;;6.53;6.22;;;16.30;62.10;;;;;;4994793;28;20026;-88
2021/10/22 08:17:42;;;;;;;10.43;6.05;;;16.60;61.50;;;;;;4978028;28;20050;-87
2021/10/22 08:20:11;;;;;;;6.78;6.47;;;16.80;61.10;;;;;;4994781;28;20030;-86
2021/10/22 08:22:37;;;;;;;6.68;6.30;;;16.70;60.80;;;;;;4990777;28;20045;-86
2021/10/22 08:25:08;;;;;;;6.32;6.03;;;16.50;61.10;;;;;;5028512;28;20046;-89
2021/10/22 08:27:39;;;;;;;6.43;6.13;;;16.30;61.70;;;;;;4963356;28;20490;-86
2021/10/22 08:30:08;;;;;;;6.43;6.13;;;16.20;62.20;;;;;;5001465;28;20656;-87
2021/10/22 08:32:35;;;;;;;6.88;6.57;;;16.10;62.70;;;;;;5018762;28;20046;-88
2021/10/22 08:35:02;;;;;;;6.40;6.10;;;16.10;63.10;;;;;;5022444;28;20042;-90
2021/10/22 08:37:29;;;;;;;6.05;5.75;;;16.00;63.50;;;;;;5007160;28;20042;-88
2021/10/22 08:39:55;;;;;;;6.18;5.88;;;15.90;63.70;;;;;;5014274;28;20483;-85
2021/10/22 08:42:22;;;;;;;6.88;6.47;;;15.80;64.00;;;;;;4994813;28;20042;-86
2021/10/22 08:44:56;;;;;;;6.10;5.80;;;15.70;64.50;;;;;;4993227;28;20031;-89
2021/10/22 08:47:26;;;;;;;18.83;6.50;;;15.70;64.80;;;;;;4986905;28;20030;-88
2021/10/22 08:49:55;;;;;;;6.35;6.05;;;15.80;64.80;;;;;;5020845;28;20042;-87
2021/10/22 08:52:21;;;;;;;6.05;5.75;;;15.70;64.80;;;;;;5008543;28;20026;-86
2021/10/22 08:54:47;;;;;;;6.63;6.22;;;15.70;65.00;;;;;;4995480;28;20518;-85
2021/10/22 08:57:13;;;;;;;6.05;5.75;;;15.60;65.10;;;;;;4980474;28;20043;-86
2021/10/22 08:59:39;;;;;;;6.00;5.70;;;15.60;65.20;;;;;;4984868;28;20027;-85
2021/10/22 09:02:14;;;;;;;5.80;5.50;;;15.50;65.20;;;;;;5005855;28;20039;-85
2021/10/22 09:04:42;;;;;;;6.15;5.85;;;15.40;65.20;;;;;;5000356;28;20031;-89
2021/10/22 09:07:10;;;;;;;5.68;5.40;;;15.40;65.30;;;;;;4978175;28;20460;-88
2021/10/22 09:09:36;;;;;;;5.90;5.60;;;15.30;65.40;;;;;;5009183;28;20106;-87
2021/10/22 09:12:03;;;;;;;6.03;5.72;;;15.30;65.40;;;;;;4991358;28;20030;-88
2021/10/22 09:14:29;;;;;;;5.80;5.50;;;15.30;65.40;;;;;;5018751;28;20035;-87
2021/10/22 09:16:55;;;;;;;7.65;7.25;;;15.30;65.40;;;;;;5014391;28;20049;-88
2021/10/22 09:19:41;;;;;;;6.20;5.90;;;15.30;65.50;;;;;;4990051;28;20041;-86
2021/10/22 09:22:30;;;;;;;6.35;6.00;;;15.30;65.50;;;;;;5014581;28;20030;-86
2021/10/22 09:25:10;;;;;;;6.00;5.70;;;15.30;65.30;;;;;;5002001;28;20033;-86
2021/10/22 09:27:38;;;;;;;5.93;5.63;;;15.30;65.30;;;;;;5001157;28;20042;-85
2021/10/22 09:30:07;;;;;;;5.88;5.57;;;15.40;65.20;;;;;;5003587;28;20373;-83
2021/10/22 09:32:34;;;;;;;6.20;5.90;;;15.40;65.00;;;;;;4998623;28;20027;-85
2021/10/22 09:35:00;;;;;;;6.53;6.22;;;15.40;65.00;;;;;;5005372;28;20038;-84
2021/10/22 09:37:37;;;;;;;6.15;5.78;;;15.40;65.00;;;;;;4984966;28;20049;-86
2021/10/22 09:40:04;;;;;;;6.10;5.80;;;15.50;65.00;;;;;;4995268;28;20038;-88
2021/10/22 09:42:30;;;;;;;5.93;5.63;;;15.60;64.60;;;;;;4994961;28;20379;-88
2021/10/22 09:44:56;;;;;;;6.13;5.82;;;15.60;64.40;;;;;;5002505;28;20037;-88
2021/10/22 09:47:22;;;;;;;5.72;5.45;;;15.60;64.50;;;;;;4999745;28;20030;-91
2021/10/22 09:49:53;;;;;;;5.88;5.57;;;15.60;64.40;;;;;;5021724;28;20030;-90
2021/10/22 09:52:28;;;;;;;6.30;6.00;;;15.60;64.40;;;;;;5024666;28;20034;-90
2021/10/22 09:55:09;;;;;;;6.40;6.10;;;15.60;64.30;;;;;;4996760;28;20034;-89
2021/10/22 09:57:36;;;;;;;6.50;6.20;;;15.60;64.30;;;;;;4989298;28;20061;-90
2021/10/22 10:00:11;;;;;;;6.50;6.20;;;15.60;64.30;;;;;;5003073;28;20289;-86
2021/10/22 10:02:40;;;;;;;5.88;5.57;;;15.60;64.20;;;;;;5000122;28;20039;-85
2021/10/22 10:05:08;;;;;;;5.63;5.38;;;15.70;64.10;;;;;;4994146;28;20034;-85
2021/10/22 10:07:37;;;;;;;6.15;5.85;;;15.70;63.60;;;;;;5006178;28;20041;-89
2021/10/22 10:10:05;;;;;;;5.93;5.63;;;15.70;63.50;;;;;;4980442;28;20379;-88
2021/10/22 10:12:31;;;;;;;5.88;5.57;;;15.60;63.30;;;;;;5000226;28;20038;-86
2021/10/22 10:14:57;;;;;;;5.85;5.55;;;15.60;63.30;;;;;;4985469;28;20023;-88
2021/10/22 10:17:25;;;;;;;18.73;6.22;;;15.60;63.20;;;;;;5013728;28;20050;-87
2021/10/22 10:19:51;;;;;;;6.60;6.30;;;15.60;63.20;;;;;;4976163;28;20045;-87
2021/10/22 10:22:19;;;;;;;6.60;6.30;;;15.60;63.20;;;;;;4994238;28;20031;-87
2021/10/22 10:24:48;;;;;;;6.30;6.00;;;15.60;63.20;;;;;;4982481;28;20054;-86
2021/10/22 10:27:19;;;;;;;6.03;5.72;;;15.70;63.00;;;;;;5006257;28;20487;-87
2021/10/22 10:29:46;;;;;;;;;;;15.80;62.70;;;;;;5000509;28;20375;-87
2021/10/22 10:32:18;;;;;;;6.18;5.88;;;15.80;62.70;;;;;;4991000;28;19921;-88
2021/10/22 10:34:57;;;;;;;6.20;5.90;;;15.70;62.70;;;;;;4983933;28;20053;-86
2021/10/22 10:37:50;;;;;;;5.88;5.57;;;15.70;62.70;;;;;;5022361;28;20045;-85
2021/10/22 10:40:26;;;;;;;6.28;5.97;;;15.80;62.70;;;;;;4987101;28;20041;-91
2021/10/22 10:42:57;;;;;;;5.85;5.55;;;15.80;62.30;;;;;;5009535;28;20030;-91
2021/10/22 10:45:25;;;;;;;6.10;5.80;;;15.80;62.30;;;;;;5020464;28;20391;-90
2021/10/22 10:47:55;;;;;;;5.95;5.65;;;15.80;62.30;;;;;;4992596;28;20026;-89
2021/10/22 10:50:39;;;;;;;6.03;5.72;;;15.80;62.30;;;;;;5024820;28;20037;-89
2021/10/22 10:53:06;;;;;;;6.00;5.70;;;15.80;62.20;;;;;;4995462;28;20464;-89
2021/10/22 10:55:32;;;;;;;6.20;5.90;;;15.80;61.80;;;;;;5006703;28;20046;-88
2021/10/22 10:58:09;;;;;;;6.13;5.82;;;15.80;61.90;;;;;;4992199;28;20503;-90
2021/10/22 11:00:36;;;;;;;6.18;5.88;;;15.80;61.70;;;;;;5012099;28;20054;-89
2021/10/22 11:03:02;;;;;;;6.07;5.78;;;15.80;61.60;;;;;;5002366;28;20030;-88
2021/10/22 11:05:43;;;;;;;6.28;5.97;;;15.80;61.60;;;;;;4985395;28;20049;-89
2021/10/22 11:08:18;;;;;;;6.55;6.25;;;15.80;61.30;;;;;;4990595;28;20365;-89
2021/10/22 11:11:14;;;;;;;6.38;6.07;;;15.80;61.00;;;;;;5009474;28;20030;-91
2021/10/22 11:14:10;;;;;;;6.55;6.25;;;15.80;60.90;;;;;;4992944;28;20026;-87
2021/10/22 11:16:44;;;;;;;6.10;5.80;;;15.90;60.80;;;;;;4969860;28;20396;-89
2021/10/22 11:19:15;;;;;;;6.60;6.30;;;15.90;60.60;;;;;;4996933;28;20384;-87
2021/10/22 11:21:54;;;;;;;6.72;6.43;;;15.90;60.60;;;;;;4994044;28;20041;-88
2021/10/22 11:24:31;;;;;;;6.60;6.30;;;15.90;60.60;;;;;;4996535;28;20510;-86
2021/10/22 11:27:02;;;;;;;6.30;6.00;;;15.90;60.30;;;;;;4994734;28;20363;-89
2021/10/22 11:29:29;;;;;;;6.78;6.47;;;15.90;60.20;;;;;;4998096;28;20031;-85
2021/10/22 11:32:11;;;;;;;6.28;5.97;;;15.90;60.10;;;;;;5005731;28;20038;-85
2021/10/22 11:34:42;;;;;;;6.43;6.13;;;15.90;60.00;;;;;;5021857;28;20033;-85
2021/10/22 11:37:16;;;;;;;6.32;6.03;;;16.00;60.00;;;;;;5028672;28;20038;-86
2021/10/22 11:39:44;;;;;;;6.07;5.78;;;16.00;59.70;;;;;;4996406;28;20035;-87
2021/10/22 11:42:15;;;;;;;6.22;5.93;;;15.90;59.30;;;;;;4975391;28;20034;-86
2021/10/22 11:44:54;;;;;;;6.35;6.05;;;16.00;59.30;;;;;;4986596;28;20034;-86
2021/10/22 11:47:21;;;;;;;7.03;6.63;;;15.90;59.20;;;;;;4985605;28;20046;-86
2021/10/22 11:49:48;;;;;;;6.72;6.43;;;16.00;59.10;;;;;;5007050;28;20031;-88
2021/10/22 11:52:18;;;;;;;6.25;5.95;;;16.00;58.90;;;;;;4995370;28;20042;-87
2021/10/22 11:54:51;;;;;;;6.68;6.38;;;16.00;58.70;;;;;;5010199;28;20101;-86
2021/10/22 11:57:19;;;;;;;6.07;5.78;;;16.00;58.60;;;;;;4979331;28;20053;-87
2021/10/22 11:59:56;;;;;;;6.45;6.15;;;16.10;58.50;;;;;;4995675;28;20038;-87
2021/10/22 12:02:25;;;;;;;6.75;6.05;;;16.10;58.50;;;;;;4993461;28;20033;-87
2021/10/22 12:04:55;;;;;;;6.40;6.10;;;16.10;58.50;;;;;;4991551;28;20023;-87
2021/10/22 12:07:21;;;;;;;6.25;5.95;;;16.10;58.50;;;;;;4994422;28;20023;-87
2021/10/22 12:09:50;;;;;;;6.43;6.13;;;16.10;58.30;;;;;;4995638;28;20048;-85
2021/10/22 12:12:16;;;;;;;6.32;6.03;;;16.20;58.20;;;;;;4996609;28;20022;-87
2021/10/22 12:14:44;;;;;;;6.95;6.60;;;16.10;58.20;;;;;;4998778;28;20044;-85
2021/10/22 12:17:12;;;;;;;6.22;5.93;;;16.20;58.20;;;;;;5005695;28;20054;-85
2021/10/22 12:19:40;;;;;;;6.10;5.80;;;16.20;58.10;;;;;;4973536;28;20039;-86
2021/10/22 12:22:06;;;;;;;6.20;5.90;;;16.20;57.90;;;;;;4991668;28;20038;-85
2021/10/22 12:24:58;;;;;;;6.53;6.22;;;16.20;58.00;;;;;;4998367;28;20479;-85
2021/10/22 12:27:26;;;;;;;6.22;5.93;;;16.20;58.00;;;;;;4969885;28;20502;-81
2021/10/22 12:29:58;;;;;;;6.72;6.43;;;16.20;58.00;;;;;;4979722;28;20035;-81
2021/10/22 12:32:34;;;;;;;6.43;6.13;;;16.20;58.00;;;;;;5004524;28;20034;-82
2021/10/22 12:35:02;;;;;;;6.43;6.13;;;16.20;57.90;;;;;;4986349;28;20054;-81
2021/10/22 12:37:37;;;;;;;6.53;6.22;;;16.20;57.70;;;;;;5003738;28;20046;-81
2021/10/22 12:40:21;;;;;;;6.47;6.18;;;16.20;57.70;;;;;;4989606;28;20042;-81
2021/10/22 12:43:01;;;;;;;6.63;6.32;;;16.20;57.70;;;;;;5018541;28;20487;-82
2021/10/22 12:45:27;;;;;;;6.03;5.73;;;16.10;57.80;;;;;;4997374;28;20038;-83
2021/10/22 12:47:54;;;;;;;6.80;6.50;;;16.10;57.80;;;;;;4990025;28;20873;-82
2021/10/22 12:50:32;;;;;;;6.55;6.25;;;16.00;57.70;;;;;;4989991;28;20373;-84
2021/10/22 12:53:00;;;;;;;6.30;6.00;;;16.10;57.80;;;;;;4993317;28;20286;-82
2021/10/22 12:55:27;;;;;;;6.07;5.78;;;16.10;57.90;;;;;;4991530;28;20757;-83
2021/10/22 12:58:16;;;;;;;6.30;6.00;;;16.10;57.90;;;;;;4982809;28;20395;-88
2021/10/22 13:00:43;;;;;;;6.80;6.50;;;16.10;57.90;;;;;;4988481;28;20030;-92